Main page
METAR-TAF:

METAR-TAF

Airports :

Bournemouth Airport

Bournemouth, England

latitude: 50-47N, longitude: 001-50W, elevation: 11 m

Current weather observation

The report was made 5 hours and 28 minutes ago, at 19:50 UTC
Wind 13 kt from the West
Temperature 6°C
Humidity 75%
Pressure 1017 hPa
Visibility 10 km or more
no clouds below 1500 m and no cumulonimbus

METAR: EGHH 171950Z 26013KT CAVOK 06/02 Q1017

Time: 01:18 (01:18 UTC)

Forecast

The report was made 5 hours and 16 minutes ago, at 20:02 UTC
Forecast valid from 17 at 21 UTC to 18 at 06 UTC
Wind 14 kt from the West/Southwest
Visibility 10 km or more
Scattered clouds at a height of 3000 ft
Probability 30% :
Temporary
from 17 at 21 UTC to 18 at 06 UTC
Wind 17 kt from the West with gusts up to 27 kt
Visibility: 6000 m
rain showers

TAF: EGHH 172002Z 1721/1806 25014KT 9999 SCT030 PROB30 TEMPO 1721/1806 26017G27KT 6000 SHRA

Weather observations and forecasts of more than 4000 airports (METAR and TAF reports).

The available stations are represented by yellow and red dots on the map.

Hover mouse over dot to see the name of the station.

Then click to see weather observations and forecasts.

To change the map : click on the green buttons with a black cross to zoom in, on the green button with a dash to zoom out, or on the green arrows for adjacent maps.


METAR-TAF: